Time;durP1;ratioP1;P1;durP2;ratioP2;P2;SDS_P1;SDS_P2;PMS_P1;PMS_P2;Temp;Humidity;BMP_temperature;BMP_pressure;BME280_temperature;BME280_humidity;BME280_pressure;Samples;Min_cycle;Max_cycle;Signal;HPM_P1;HPM_P2
2022/10/24 00:00:23;;;;;;;;;;;20.30;71.40;;;;;;5069293;28;1209;-67
2022/10/24 00:02:48;;;;;;;;;;;20.30;71.40;;;;;;5068431;28;1901;-65
2022/10/24 00:05:14;;;;;;;;;;;20.30;71.40;;;;;;5069436;28;847;-67
2022/10/24 00:07:40;;;;;;;;;;;20.30;71.40;;;;;;5068408;28;1200;-67
2022/10/24 00:10:05;;;;;;;;;;;20.30;71.40;;;;;;5068150;28;915;-67
2022/10/24 00:12:31;;;;;;;;;;;20.30;71.40;;;;;;5068096;28;1471;-67
2022/10/24 00:14:56;;;;;;;;;;;20.30;71.40;;;;;;5068822;28;933;-66
2022/10/24 00:17:21;;;;;;;;;;;20.30;71.50;;;;;;5071361;28;1382;-66
2022/10/24 00:19:47;;;;;;;;;;;20.30;71.50;;;;;;5073777;28;906;-66
2022/10/24 00:22:12;;;;;;;;;;;20.30;71.50;;;;;;5073357;28;1894;-67
2022/10/24 00:24:38;;;;;;;;;;;20.30;71.40;;;;;;5072351;28;1109;-66
2022/10/24 00:27:03;;;;;;;;;;;20.30;71.40;;;;;;5072649;28;1273;-67
2022/10/24 00:29:29;;;;;;;;;;;20.30;71.40;;;;;;5072767;28;809;-67
2022/10/24 00:31:54;;;;;;;;;;;20.30;71.40;;;;;;5075082;28;1033;-66
2022/10/24 00:34:19;;;;;;;;;;;20.30;71.40;;;;;;5072340;28;1099;-66
2022/10/24 00:36:45;;;;;;;;;;;20.30;71.50;;;;;;5072929;28;1265;-66
2022/10/24 00:39:10;;;;;;;;;;;20.30;71.40;;;;;;5073138;28;851;-66
2022/10/24 00:41:37;;;;;;;;;;;20.30;71.40;;;;;;5071827;28;998;-66
2022/10/24 00:44:12;;;;;;;;;;;20.30;71.50;;;;;;5072527;28;1967;-66
2022/10/24 00:46:39;;;;;;;;;;;20.30;71.50;;;;;;5071255;28;1262;-66
2022/10/24 00:49:04;;;;;;;;;;;20.30;71.50;;;;;;5070375;28;1194;-67
2022/10/24 00:51:31;;;;;;;;;;;20.30;71.50;;;;;;5072780;28;795;-67
2022/10/24 00:53:57;;;;;;;;;;;20.30;71.50;;;;;;5071171;28;1034;-67
2022/10/24 00:56:23;;;;;;;;;;;20.30;71.50;;;;;;5071307;28;1462;-66
2022/10/24 00:58:49;;;;;;;;;;;20.30;71.50;;;;;;5072406;28;1285;-66
2022/10/24 01:01:14;;;;;;;;;;;20.30;72.20;;;;;;5072837;28;931;-67
2022/10/24 01:03:40;;;;;;;;;;;20.30;71.50;;;;;;5072225;28;1909;-67
2022/10/24 01:06:08;;;;;;;;;;;20.30;71.70;;;;;;5071640;28;828;-66
2022/10/24 01:08:45;;;;;;;;;;;20.30;71.50;;;;;;5072162;28;1349;-66
2022/10/24 01:11:13;;;;;;;;;;;20.30;71.50;;;;;;5071850;28;871;-67
2022/10/24 01:13:42;;;;;;;;;;;20.30;71.50;;;;;;5070664;28;986;-67
2022/10/24 01:16:18;;;;;;;;;;;20.30;71.50;;;;;;5070944;28;911;-66
2022/10/24 01:18:47;;;;;;;;;;;20.30;71.50;;;;;;5069730;28;1227;-66
2022/10/24 01:21:32;;;;;;;;;;;20.30;71.50;;;;;;5070718;28;1026;-66
2022/10/24 01:24:03;;;;;;;;;;;20.30;71.50;;;;;;5071287;28;1921;-67
2022/10/24 01:26:46;;;;;;;;;;;20.30;71.50;;;;;;5071303;28;1336;-67
2022/10/24 01:29:15;;;;;;;;;;;20.30;71.50;;;;;;5070560;28;834;-67
2022/10/24 01:31:44;;;;;;;;;;;20.30;71.50;;;;;;5072279;28;1413;-67
2022/10/24 01:34:24;;;;;;;;;;;20.20;71.50;;;;;;5069863;28;914;-66
2022/10/24 01:36:50;;;;;;;;;;;20.30;71.60;;;;;;5069110;28;1304;-67
2022/10/24 01:39:17;;;;;;;;;;;20.30;71.50;;;;;;5070097;28;1092;-68
2022/10/24 01:41:42;;;;;;;;;;;20.30;71.50;;;;;;5070733;28;1347;-68
2022/10/24 01:44:09;;;;;;;;;;;20.30;71.60;;;;;;5069336;28;1948;-67
2022/10/24 01:46:36;;;;;;;;;;;20.30;71.50;;;;;;5074719;28;1263;-67
2022/10/24 01:49:03;;;;;;;;;;;20.30;71.50;;;;;;5070306;28;882;-67
2022/10/24 01:51:29;;;;;;;;;;;20.20;71.50;;;;;;5070040;28;1357;-67
2022/10/24 01:53:54;;;;;;;;;;;20.30;71.60;;;;;;5073924;28;910;-67
2022/10/24 01:56:20;;;;;;;;;;;20.20;71.50;;;;;;5068854;28;847;-67
2022/10/24 01:58:45;;;;;;;;;;;20.30;71.50;;;;;;5070909;28;1299;-67
2022/10/24 02:01:13;;;;;;;;;;;20.30;71.50;;;;;;5070044;28;834;-66
2022/10/24 02:03:44;;;;;;;;;;;20.30;71.50;;;;;;5069295;28;1910;-66
2022/10/24 02:06:10;;;;;;;;;;;20.30;71.50;;;;;;5070224;28;1017;-67
2022/10/24 02:08:38;;;;;;;;;;;20.30;71.60;;;;;;5069472;28;1368;-66
2022/10/24 02:11:04;;;;;;;;;;;20.30;71.60;;;;;;5067969;28;843;-67
2022/10/24 02:13:48;;;;;;;;;;;20.30;71.60;;;;;;5069049;28;1428;-66
2022/10/24 02:16:17;;;;;;;;;;;20.30;71.60;;;;;;5071046;28;1046;-67
2022/10/24 02:18:42;;;;;;;;;;;20.30;71.60;;;;;;5069320;28;1308;-68
2022/10/24 02:21:27;;;;;;;;;;;20.30;71.60;;;;;;5068090;28;1451;-68
2022/10/24 02:23:55;;;;;;;;;;;20.30;71.60;;;;;;5067570;28;1964;-69
2022/10/24 02:26:23;;;;;;;;;;;20.30;71.60;;;;;;5066829;28;1429;-67
2022/10/24 02:28:48;;;;;;;;;;;20.30;71.60;;;;;;5070430;28;1308;-67
2022/10/24 02:31:16;;;;;;;;;;;20.30;71.60;;;;;;5073773;28;891;-66
2022/10/24 02:33:41;;;;;;;;;;;20.30;71.60;;;;;;5068822;28;814;-66
2022/10/24 02:36:07;;;;;;;;;;;20.30;71.60;;;;;;5071227;28;951;-66
2022/10/24 02:38:33;;;;;;;;;;;20.30;71.60;;;;;;5073984;28;1337;-66
2022/10/24 02:40:59;;;;;;;;;;;20.30;71.60;;;;;;5070043;28;825;-66
2022/10/24 02:43:25;;;;;;;;;;;20.30;71.60;;;;;;5069042;28;1929;-66
2022/10/24 02:45:50;;;;;;;;;;;20.30;71.60;;;;;;5067772;28;1412;-65
2022/10/24 02:48:16;;;;;;;;;;;20.20;71.50;;;;;;5068602;28;1264;-67
2022/10/24 02:50:41;;;;;;;;;;;20.30;71.60;;;;;;5068656;28;1022;-66
2022/10/24 02:53:08;;;;;;;;;;;20.30;71.60;;;;;;5068943;28;1080;-66
2022/10/24 02:55:33;;;;;;;;;;;20.30;71.60;;;;;;5069724;28;899;-66
2022/10/24 02:57:59;;;;;;;;;;;20.30;71.60;;;;;;5069952;28;1358;-66
2022/10/24 03:00:24;;;;;;;;;;;20.30;71.50;;;;;;5070305;28;938;-66
2022/10/24 03:02:49;;;;;;;;;;;20.30;71.50;;;;;;5070248;28;1902;-66
2022/10/24 03:05:15;;;;;;;;;;;20.30;71.50;;;;;;5069828;28;818;-66
2022/10/24 03:07:40;;;;;;;;;;;20.30;71.50;;;;;;5069697;28;1515;-66
2022/10/24 03:10:06;;;;;;;;;;;20.30;71.50;;;;;;5070284;28;922;-66
2022/10/24 03:12:31;;;;;;;;;;;20.30;71.40;;;;;;5070212;28;1360;-66
2022/10/24 03:14:57;;;;;;;;;;;20.30;71.40;;;;;;5069429;28;803;-66
2022/10/24 03:17:22;;;;;;;;;;;20.30;71.40;;;;;;5069960;28;1273;-66
2022/10/24 03:19:48;;;;;;;;;;;20.30;71.40;;;;;;5070132;28;1164;-66
2022/10/24 03:22:13;;;;;;;;;;;20.30;71.30;;;;;;5068329;28;1902;-66
2022/10/24 03:24:38;;;;;;;;;;;20.30;71.40;;;;;;5069447;28;1034;-66
2022/10/24 03:27:04;;;;;;;;;;;20.30;71.40;;;;;;5069992;28;1350;-66
2022/10/24 03:29:29;;;;;;;;;;;20.40;71.40;;;;;;5070065;28;808;-66
2022/10/24 03:31:55;;;;;;;;;;;20.30;71.30;;;;;;5070587;28;1365;-65
2022/10/24 03:34:20;;;;;;;;;;;20.30;71.40;;;;;;5069185;28;895;-66
2022/10/24 03:36:46;;;;;;;;;;;20.30;71.30;;;;;;5069249;28;1227;-67
2022/10/24 03:39:11;;;;;;;;;;;20.30;71.30;;;;;;5069834;28;844;-67
2022/10/24 03:41:37;;;;;;;;;;;20.40;71.30;;;;;;5069783;28;858;-66
2022/10/24 03:44:02;;;;;;;;;;;20.40;71.30;;;;;;5069070;28;1894;-67
2022/10/24 03:46:27;;;;;;;;;;;20.40;71.30;;;;;;5051516;28;1649;-66
2022/10/24 03:48:53;;;;;;;;;;;20.40;71.30;;;;;;5070001;28;965;-67
2022/10/24 03:51:18;;;;;;;;;;;20.40;71.30;;;;;;5071289;28;879;-66
2022/10/24 03:53:44;;;;;;;;;;;20.40;71.30;;;;;;5071691;28;904;-66
2022/10/24 03:56:09;;;;;;;;;;;20.40;71.30;;;;;;5073753;28;816;-67
2022/10/24 03:58:35;;;;;;;;;;;20.40;71.30;;;;;;5073503;28;1270;-66
2022/10/24 04:01:00;;;;;;;;;;;20.40;71.30;;;;;;5073121;28;1441;-65
2022/10/24 04:03:25;;;;;;;;;;;20.40;71.30;;;;;;5073193;28;1914;-66
2022/10/24 04:05:51;;;;;;;;;;;20.40;71.30;;;;;;5072717;28;803;-65
2022/10/24 04:08:17;;;;;;;;;;;20.30;71.20;;;;;;5071926;28;1307;-66
2022/10/24 04:10:42;;;;;;;;;;;20.40;71.20;;;;;;5072413;28;854;-66
2022/10/24 04:13:08;;;;;;;;;;;20.40;71.20;;;;;;5073226;28;1344;-65
2022/10/24 04:15:33;;;;;;;;;;;20.40;71.10;;;;;;5072909;28;922;-66
2022/10/24 04:17:58;;;;;;;;;;;20.40;71.10;;;;;;5072869;28;1260;-65
2022/10/24 04:20:24;;;;;;;;;;;20.40;71.10;;;;;;5072794;28;1208;-66
2022/10/24 04:22:52;;;;;;;;;;;20.40;71.00;;;;;;5073120;28;1953;-66
2022/10/24 04:25:17;;;;;;;;;;;20.40;70.90;;;;;;5072317;28;901;-66
2022/10/24 04:27:44;;;;;;;;;;;20.40;70.80;;;;;;5072669;28;1347;-66
2022/10/24 04:30:10;;;;;;;;;;;20.50;70.80;;;;;;5072946;28;828;-66
2022/10/24 04:32:35;;;;;;;;;;;20.50;70.70;;;;;;5071623;28;1459;-66
2022/10/24 04:35:01;;;;;;;;;;;20.50;70.70;;;;;;5070986;28;875;-66
2022/10/24 04:37:26;;;;;;;;;;;20.50;70.60;;;;;;5072285;28;1376;-66
2022/10/24 04:39:53;;;;;;;;;;;20.50;70.50;;;;;;5071893;28;817;-66
2022/10/24 04:42:19;;;;;;;;;;;20.50;70.40;;;;;;5072610;28;1955;-66
2022/10/24 04:44:44;;;;;;;;;;;20.60;70.40;;;;;;5075358;28;916;-66
2022/10/24 04:47:10;;;;;;;;;;;20.60;70.40;;;;;;5076622;28;1212;-65
2022/10/24 04:49:35;;;;;;;;;;;20.60;70.30;;;;;;5072720;28;1010;-66
2022/10/24 04:52:01;;;;;;;;;;;20.60;70.20;;;;;;5072235;28;800;-66
2022/10/24 04:54:26;;;;;;;;;;;20.60;70.20;;;;;;5071981;28;890;-67
2022/10/24 04:56:52;;;;;;;;;;;20.60;70.10;;;;;;5072422;28;1227;-66
2022/10/24 04:59:17;;;;;;;;;;;20.60;70.10;;;;;;5072147;28;886;-66
2022/10/24 05:01:42;;;;;;;;;;;20.70;70.10;;;;;;5072459;28;906;-67
2022/10/24 05:04:08;;;;;;;;;;;20.70;70.10;;;;;;5070224;28;1957;-67
2022/10/24 05:06:33;;;;;;;;;;;20.70;70.00;;;;;;5071929;28;1267;-67
2022/10/24 05:08:59;;;;;;;;;;;20.70;69.90;;;;;;5070665;28;994;-66
2022/10/24 05:11:24;;;;;;;;;;;20.70;69.90;;;;;;5060447;28;1865;-69
2022/10/24 05:13:50;;;;;;;;;;;20.70;69.80;;;;;;5068443;28;1867;-68
2022/10/24 05:16:15;;;;;;;;;;;20.70;69.80;;;;;;5050110;28;5250;-68
2022/10/24 05:18:40;;;;;;;;;;;20.70;69.80;;;;;;5071859;28;1261;-68
2022/10/24 05:21:06;;;;;;;;;;;20.70;69.80;;;;;;5069928;28;2118;-67
2022/10/24 05:23:31;;;;;;;;;;;20.70;69.80;;;;;;5070734;28;1973;-67
2022/10/24 05:25:57;;;;;;;;;;;20.80;69.80;;;;;;5070572;28;1364;-67
2022/10/24 05:28:22;;;;;;;;;;;20.70;69.70;;;;;;5069794;28;1337;-68
2022/10/24 05:30:48;;;;;;;;;;;20.80;69.80;;;;;;5070567;28;804;-68
2022/10/24 05:33:13;;;;;;;;;;;20.80;69.80;;;;;;5069433;28;1434;-68
2022/10/24 05:35:40;;;;;;;;;;;20.70;69.70;;;;;;5069943;28;837;-68
2022/10/24 05:38:05;;;;;;;;;;;20.70;69.70;;;;;;5067835;28;1275;-67
2022/10/24 05:40:31;;;;;;;;;;;20.80;69.80;;;;;;5068819;28;903;-68
2022/10/24 05:42:56;;;;;;;;;;;20.80;69.80;;;;;;5070262;28;1942;-69
2022/10/24 05:45:22;;;;;;;;;;;20.70;69.70;;;;;;5069607;28;1033;-69
2022/10/24 05:47:47;;;;;;;;;;;20.70;69.70;;;;;;5070003;28;1251;-69
2022/10/24 05:50:13;;;;;;;;;;;20.70;69.70;;;;;;5085446;28;1201;-68
2022/10/24 05:52:41;;;;;;;;;;;20.80;69.70;;;;;;5070203;28;1396;-68
2022/10/24 05:55:06;;;;;;;;;;;20.80;69.70;;;;;;5070796;28;941;-67
2022/10/24 05:57:32;;;;;;;;;;;20.80;69.70;;;;;;5070044;28;1215;-68
2022/10/24 05:59:57;;;;;;;;;;;20.80;69.70;;;;;;5069797;28;1026;-68
2022/10/24 06:02:23;;;;;;;;;;;20.80;69.70;;;;;;5071284;28;1901;-68
2022/10/24 06:04:49;;;;;;;;;;;20.80;69.70;;;;;;5070393;28;868;-68
2022/10/24 06:07:15;;;;;;;;;;;20.80;69.60;;;;;;5070704;28;1346;-67
2022/10/24 06:09:40;;;;;;;;;;;20.80;69.60;;;;;;5068982;28;1038;-68
2022/10/24 06:12:07;;;;;;;;;;;20.80;69.50;;;;;;5071058;28;941;-68
2022/10/24 06:14:33;;;;;;;;;;;20.80;69.50;;;;;;5069386;28;1247;-68
2022/10/24 06:16:58;;;;;;;;;;;20.80;69.50;;;;;;5071025;28;1259;-68
2022/10/24 06:19:23;;;;;;;;;;;20.80;69.50;;;;;;5070895;28;858;-68
2022/10/24 06:21:49;;;;;;;;;;;20.80;69.40;;;;;;5069465;28;1281;-68
2022/10/24 06:24:14;;;;;;;;;;;20.80;69.40;;;;;;5070090;28;1949;-69
2022/10/24 06:26:40;;;;;;;;;;;20.80;69.40;;;;;;5069431;28;1351;-68
2022/10/24 06:29:05;;;;;;;;;;;20.80;69.40;;;;;;5069562;28;1030;-68
2022/10/24 06:31:31;;;;;;;;;;;20.90;69.50;;;;;;5070897;28;1366;-68
2022/10/24 06:33:56;;;;;;;;;;;20.80;69.40;;;;;;5069868;28;852;-68
2022/10/24 06:36:21;;;;;;;;;;;20.80;69.40;;;;;;5070326;28;835;-68
2022/10/24 06:38:47;;;;;;;;;;;20.80;69.50;;;;;;5070080;28;1609;-68
2022/10/24 06:41:13;;;;;;;;;;;20.80;69.50;;;;;;5070733;28;802;-68
2022/10/24 06:43:40;;;;;;;;;;;20.80;69.50;;;;;;5068689;28;1902;-68
2022/10/24 06:46:06;;;;;;;;;;;20.80;69.50;;;;;;5070285;28;878;-68
2022/10/24 06:48:32;;;;;;;;;;;20.80;69.50;;;;;;5069897;28;1251;-68
2022/10/24 06:50:58;;;;;;;;;;;20.80;69.50;;;;;;5070500;28;825;-68
2022/10/24 06:53:23;;;;;;;;;;;20.80;69.50;;;;;;5070306;28;949;-68
2022/10/24 06:55:49;;;;;;;;;;;20.80;69.50;;;;;;5069663;28;934;-67
2022/10/24 06:58:14;;;;;;;;;;;20.80;69.50;;;;;;5070175;28;1268;-67
2022/10/24 07:00:39;;;;;;;;;;;20.80;69.40;;;;;;5070231;28;1009;-67
2022/10/24 07:03:05;;;;;;;;;;;20.80;69.40;;;;;;5068411;28;1961;-67
2022/10/24 07:05:30;;;;;;;;;;;20.80;69.40;;;;;;5069499;28;856;-67
2022/10/24 07:07:56;;;;;;;;;;;20.80;69.40;;;;;;5069998;28;1264;-66
2022/10/24 07:10:21;;;;;;;;;;;20.80;69.40;;;;;;5070178;28;891;-67
2022/10/24 07:12:47;;;;;;;;;;;20.80;69.30;;;;;;5070036;28;1385;-68
2022/10/24 07:15:12;;;;;;;;;;;20.90;69.30;;;;;;5068525;28;1423;-68
2022/10/24 07:17:40;;;;;;;;;;;20.80;69.30;;;;;;5069637;28;1272;-67
2022/10/24 07:20:06;;;;;;;;;;;20.80;69.20;;;;;;5068613;28;897;-68
2022/10/24 07:22:31;;;;;;;;;;;20.80;69.20;;;;;;5070102;28;1898;-67
2022/10/24 07:24:57;;;;;;;;;;;20.80;69.20;;;;;;5069053;28;1018;-68
2022/10/24 07:27:22;;;;;;;;;;;20.90;69.30;;;;;;5068831;28;1288;-68
2022/10/24 07:29:48;;;;;;;;;;;20.90;69.30;;;;;;5069850;28;1065;-67
2022/10/24 07:32:13;;;;;;;;;;;20.90;69.30;;;;;;5070227;28;1504;-68
2022/10/24 07:34:39;;;;;;;;;;;20.80;69.20;;;;;;5067675;28;1689;-68
2022/10/24 07:37:04;;;;;;;;;;;20.80;69.30;;;;;;5069405;28;1331;-67
2022/10/24 07:39:30;;;;;;;;;;;20.80;69.30;;;;;;5069966;28;813;-68
2022/10/24 07:41:55;;;;;;;;;;;20.80;69.30;;;;;;5070035;28;843;-68
2022/10/24 07:44:21;;;;;;;;;;;20.80;69.40;;;;;;5069144;28;1898;-67
2022/10/24 07:46:46;;;;;;;;;;;20.80;69.40;;;;;;5069543;28;1249;-67
2022/10/24 07:49:12;;;;;;;;;;;20.80;69.30;;;;;;5069566;28;899;-67
2022/10/24 07:51:37;;;;;;;;;;;20.80;69.30;;;;;;5069715;28;884;-68
2022/10/24 07:54:02;;;;;;;;;;;20.80;69.30;;;;;;5068817;28;1077;-67
2022/10/24 07:56:28;;;;;;;;;;;20.80;69.30;;;;;;5069420;28;839;-68
2022/10/24 07:58:55;;;;;;;;;;;20.90;69.30;;;;;;5068021;28;1302;-68
2022/10/24 08:01:21;;;;;;;;;;;20.80;69.30;;;;;;5069474;28;934;-68
2022/10/24 08:03:47;;;;;;;;;;;20.90;69.30;;;;;;5067401;28;1959;-67
2022/10/24 08:06:13;;;;;;;;;;;20.90;69.30;;;;;;5068337;28;828;-68
2022/10/24 08:08:38;;;;;;;;;;;20.90;69.30;;;;;;5069284;28;1255;-68
2022/10/24 08:11:07;;;;;;;;;;;20.90;69.20;;;;;;5069599;28;947;-67
2022/10/24 08:13:33;;;;;;;;;;;20.90;69.20;;;;;;5067662;28;1280;-67
2022/10/24 08:15:58;;;;;;;;;;;20.90;69.20;;;;;;5072389;28;930;-67
2022/10/24 08:18:23;;;;;;;;;;;20.90;69.30;;;;;;5069357;28;1444;-67
2022/10/24 08:20:56;;;;;;;;;;;20.90;69.30;;;;;;5069352;28;954;-67
2022/10/24 08:23:21;;;;;;;;;;;20.90;69.30;;;;;;5069168;28;1984;-67
2022/10/24 08:25:47;;;;;;;;;;;20.90;69.40;;;;;;5068783;28;891;-67
2022/10/24 08:28:12;;;;;;;;;;;20.90;69.30;;;;;;5069103;28;1322;-67
2022/10/24 08:30:38;;;;;;;;;;;20.80;69.30;;;;;;5069221;28;894;-67
2022/10/24 08:33:03;;;;;;;;;;;20.80;69.30;;;;;;5070091;28;1481;-67
2022/10/24 08:35:28;;;;;;;;;;;20.80;69.30;;;;;;5067247;28;914;-67
2022/10/24 08:37:54;;;;;;;;;;;20.80;69.30;;;;;;5069621;28;1383;-67
2022/10/24 08:40:19;;;;;;;;;;;20.80;69.40;;;;;;5073087;28;1068;-67
2022/10/24 08:42:45;;;;;;;;;;;20.80;69.40;;;;;;5071663;28;1922;-66
2022/10/24 08:45:12;;;;;;;;;;;20.80;69.40;;;;;;5071033;28;1480;-67
2022/10/24 08:47:45;;;;;;;;;;;20.80;69.50;;;;;;5070553;28;1289;-66
2022/10/24 08:50:20;;;;;;;;;;;20.80;69.50;;;;;;5072595;28;907;-66
2022/10/24 08:52:48;;;;;;;;;;;20.80;69.50;;;;;;5071801;28;911;-66
2022/10/24 08:55:15;;;;;;;;;;;20.80;69.60;;;;;;5071716;28;947;-66
2022/10/24 08:57:42;;;;;;;;;;;20.80;69.60;;;;;;5070681;28;1268;-66
2022/10/24 09:00:12;;;;;;;;;;;20.80;69.60;;;;;;5071141;28;973;-66
2022/10/24 09:02:38;;;;;;;;;;;20.80;69.60;;;;;;5075743;28;1902;-66
2022/10/24 09:05:13;;;;;;;;;;;20.80;69.60;;;;;;5071932;28;859;-66
2022/10/24 09:07:39;;;;;;;;;;;20.80;69.70;;;;;;5070895;28;1564;-66
2022/10/24 09:10:06;;;;;;;;;;;20.80;69.70;;;;;;5071871;28;1034;-66
2022/10/24 09:12:31;;;;;;;;;;;20.80;69.70;;;;;;5072420;28;954;-66
2022/10/24 09:14:57;;;;;;;;;;;20.80;69.70;;;;;;5070380;28;992;-66
2022/10/24 09:17:22;;;;;;;;;;;20.80;69.80;;;;;;5070723;28;1351;-66
2022/10/24 09:19:52;;;;;;;;;;;20.80;69.90;;;;;;5072281;28;883;-66
2022/10/24 09:22:17;;;;;;;;;;;20.80;70.60;;;;;;5070479;28;1906;-66
2022/10/24 09:24:47;;;;;;;;;;;20.80;69.90;;;;;;5071174;28;851;-66
2022/10/24 09:27:20;;;;;;;;;;;20.70;69.80;;;;;;5070212;28;1222;-66
2022/10/24 09:29:45;;;;;;;;;;;20.70;69.80;;;;;;5069538;28;856;-66
2022/10/24 09:32:15;;;;;;;;;;;20.80;69.90;;;;;;5071846;28;1477;-66
2022/10/24 09:34:40;;;;;;;;;;;20.70;69.90;;;;;;5071122;28;846;-66
2022/10/24 09:37:06;;;;;;;;;;;20.70;69.90;;;;;;5071715;28;1343;-66
2022/10/24 09:39:33;;;;;;;;;;;20.70;69.90;;;;;;5071293;28;1006;-66
2022/10/24 09:41:58;;;;;;;;;;;20.70;70.00;;;;;;5071757;28;930;-66
2022/10/24 09:44:29;;;;;;;;;;;20.70;70.00;;;;;;5071048;28;1901;-67
2022/10/24 09:46:54;;;;;;;;;;;20.70;70.00;;;;;;5071632;28;1336;-67
2022/10/24 09:49:21;;;;;;;;;;;20.70;70.00;;;;;;5079538;28;1547;-66
2022/10/24 09:51:48;;;;;;;;;;;20.70;70.10;;;;;;5070121;28;904;-66
2022/10/24 09:54:19;;;;;;;;;;;20.70;70.10;;;;;;5070557;28;1050;-66
2022/10/24 09:56:46;;;;;;;;;;;20.70;70.10;;;;;;5071428;28;1337;-66
2022/10/24 09:59:30;;;;;;;;;;;20.70;70.10;;;;;;5070766;28;1018;-66
2022/10/24 10:02:17;;;;;;;;;;;20.70;70.10;;;;;;5071112;28;876;-66
2022/10/24 10:04:43;;;;;;;;;;;20.70;70.20;;;;;;5070601;28;970;-66
2022/10/24 10:07:09;;;;;;;;;;;20.60;70.10;;;;;;5073867;28;1279;-66
2022/10/24 10:09:40;;;;;;;;;;;20.60;70.20;;;;;;5069542;28;829;-66
2022/10/24 10:12:05;;;;;;;;;;;20.70;70.30;;;;;;5069075;28;1293;-66
2022/10/24 10:14:31;;;;;;;;;;;20.60;70.20;;;;;;5070396;28;954;-66
2022/10/24 10:16:57;;;;;;;;;;;20.60;70.30;;;;;;5073820;28;1305;-66
2022/10/24 10:19:23;;;;;;;;;;;20.70;70.40;;;;;;5070740;28;978;-66
2022/10/24 10:21:59;;;;;;;;;;;20.60;70.30;;;;;;5071134;28;788;-66
2022/10/24 10:24:24;;;;;;;;;;;20.60;70.30;;;;;;5069009;28;1938;-66
2022/10/24 10:26:50;;;;;;;;;;;20.60;70.30;;;;;;5070835;28;1345;-66
2022/10/24 10:29:15;;;;;;;;;;;20.60;70.30;;;;;;5070595;28;817;-66
2022/10/24 10:31:47;;;;;;;;;;;20.60;70.40;;;;;;5070847;28;1353;-66
2022/10/24 10:34:16;;;;;;;;;;;20.60;71.20;;;;;;5068919;28;883;-66
2022/10/24 10:36:45;;;;;;;;;;;20.60;70.40;;;;;;5069324;28;1275;-66
2022/10/24 10:39:27;;;;;;;;;;;20.60;70.40;;;;;;5052920;28;1488;-66
2022/10/24 10:42:00;;;;;;;;;;;20.60;70.50;;;;;;5068599;28;994;-66
2022/10/24 10:44:45;;;;;;;;;;;20.60;70.50;;;;;;5069514;28;1902;-66
2022/10/24 10:47:20;;;;;;;;;;;20.60;70.50;;;;;;5070274;28;1266;-66
2022/10/24 10:49:45;;;;;;;;;;;20.60;70.50;;;;;;5068751;28;1062;-66
2022/10/24 10:52:21;;;;;;;;;;;20.60;70.50;;;;;;5069080;28;814;-66
2022/10/24 10:54:50;;;;;;;;;;;20.60;70.60;;;;;;5069534;28;895;-66
2022/10/24 10:57:25;;;;;;;;;;;20.60;70.50;;;;;;5070419;28;1261;-67
2022/10/24 11:00:06;;;;;;;;;;;20.60;70.60;;;;;;5070071;28;1005;-66
2022/10/24 11:02:34;;;;;;;;;;;20.60;70.60;;;;;;5067986;28;2238;-66
2022/10/24 11:05:00;;;;;;;;;;;20.60;70.60;;;;;;5069705;28;891;-66
2022/10/24 11:07:28;;;;;;;;;;;20.60;70.70;;;;;;5085828;28;2149;-66
2022/10/24 11:09:55;;;;;;;;;;;20.60;70.70;;;;;;5074229;28;923;-66
2022/10/24 11:12:24;;;;;;;;;;;20.60;70.70;;;;;;5069345;28;1351;-67
2022/10/24 11:14:50;;;;;;;;;;;20.50;70.60;;;;;;5069671;28;800;-66
2022/10/24 11:17:20;;;;;;;;;;;20.50;70.60;;;;;;5068787;28;1356;-67
2022/10/24 11:19:48;;;;;;;;;;;20.60;70.80;;;;;;5068513;28;803;-67
2022/10/24 11:22:22;;;;;;;;;;;20.50;70.70;;;;;;5069711;28;1894;-67
2022/10/24 11:24:50;;;;;;;;;;;20.50;70.80;;;;;;5067698;28;938;-66
2022/10/24 11:27:20;;;;;;;;;;;20.50;70.80;;;;;;5068719;28;1276;-67
2022/10/24 11:29:49;;;;;;;;;;;20.50;70.70;;;;;;5068790;28;895;-67
2022/10/24 11:32:14;;;;;;;;;;;20.50;70.70;;;;;;5068534;28;1422;-66
2022/10/24 11:34:41;;;;;;;;;;;20.50;70.80;;;;;;5069385;28;851;-66
2022/10/24 11:37:10;;;;;;;;;;;20.50;70.80;;;;;;5069910;28;1189;-66
2022/10/24 11:39:54;;;;;;;;;;;20.50;70.80;;;;;;5068961;28;1093;-66
2022/10/24 11:42:20;;;;;;;;;;;20.50;70.80;;;;;;5069074;28;1961;-66
2022/10/24 11:44:46;;;;;;;;;;;20.50;70.80;;;;;;5067975;28;899;-67
2022/10/24 11:47:24;;;;;;;;;;;20.50;70.80;;;;;;5068318;28;1246;-67
2022/10/24 11:50:13;;;;;;;;;;;20.50;70.80;;;;;;5069723;28;998;-67
2022/10/24 11:52:39;;;;;;;;;;;20.50;70.90;;;;;;5076619;28;1186;-67
2022/10/24 11:55:16;;;;;;;;;;;20.50;70.90;;;;;;5067572;28;1033;-67
2022/10/24 11:57:42;;;;;;;;;;;20.50;70.90;;;;;;5068894;28;1642;-67
2022/10/24 12:00:14;;;;;;;;;;;20.50;70.90;;;;;;5068382;28;930;-67
2022/10/24 12:02:54;;;;;;;;;;;20.50;70.90;;;;;;5069663;28;1879;-67
2022/10/24 12:05:26;;;;;;;;;;;20.50;70.90;;;;;;5067073;28;1193;-67
2022/10/24 12:08:00;;;;;;;;;;;20.50;70.90;;;;;;5073269;28;1247;-67
2022/10/24 12:10:41;;;;;;;;;;;20.50;71.00;;;;;;5069260;28;898;-67
2022/10/24 12:13:21;;;;;;;;;;;20.50;70.90;;;;;;5072303;28;1360;-66
2022/10/24 12:15:50;;;;;;;;;;;20.50;71.00;;;;;;5073099;28;1089;-67
2022/10/24 12:18:28;;;;;;;;;;;20.50;71.00;;;;;;5073020;28;1356;-67
2022/10/24 12:20:54;;;;;;;;;;;20.40;70.90;;;;;;5072827;28;820;-66
2022/10/24 12:23:21;;;;;;;;;;;20.50;71.00;;;;;;5072577;28;1906;-66
2022/10/24 12:25:47;;;;;;;;;;;20.40;71.00;;;;;;5054512;28;1224;-66
2022/10/24 12:28:19;;;;;;;;;;;20.40;71.00;;;;;;5072691;28;1325;-67
2022/10/24 12:31:04;;;;;;;;;;;20.50;71.00;;;;;;5071882;28;1061;-67
2022/10/24 12:33:30;;;;;;;;;;;20.40;71.00;;;;;;5073519;28;1528;-67
2022/10/24 12:35:56;;;;;;;;;;;20.40;71.00;;;;;;5072175;28;1336;-66
2022/10/24 12:38:28;;;;;;;;;;;20.50;71.10;;;;;;5072418;28;1237;-68
2022/10/24 12:41:05;;;;;;;;;;;20.50;71.10;;;;;;5073055;28;1041;-67
2022/10/24 12:43:33;;;;;;;;;;;20.40;71.00;;;;;;5070942;28;1905;-66
2022/10/24 12:46:00;;;;;;;;;;;20.40;71.00;;;;;;5072173;28;989;-67
2022/10/24 12:48:31;;;;;;;;;;;20.40;71.00;;;;;;5071127;28;1191;-67
2022/10/24 12:51:00;;;;;;;;;;;20.50;71.10;;;;;;5071472;28;938;-66
2022/10/24 12:53:30;;;;;;;;;;;20.50;71.10;;;;;;5072804;28;835;-66
2022/10/24 12:55:58;;;;;;;;;;;20.50;71.20;;;;;;5071863;28;819;-66
2022/10/24 12:58:33;;;;;;;;;;;20.50;71.10;;;;;;5071462;28;1358;-66
2022/10/24 13:01:00;;;;;;;;;;;20.50;71.20;;;;;;5072042;28;851;-66
2022/10/24 13:03:44;;;;;;;;;;;20.50;71.20;;;;;;5071239;28;1963;-66
2022/10/24 13:06:22;;;;;;;;;;;20.40;71.10;;;;;;5072500;28;970;-66
2022/10/24 13:09:07;;;;;;;;;;;20.50;71.20;;;;;;5071965;28;1354;-66
2022/10/24 13:11:40;;;;;;;;;;;20.50;71.20;;;;;;5072591;28;898;-66
2022/10/24 13:14:35;;;;;;;;;;;20.50;71.30;;;;;;5071025;28;1015;-66
2022/10/24 13:17:00;;;;;;;;;;;20.40;71.10;;;;;;5039689;28;1236;-66
2022/10/24 13:19:26;;;;;;;;;;;20.40;71.20;;;;;;5072506;28;803;-66
2022/10/24 13:21:53;;;;;;;;;;;20.40;71.20;;;;;;5070871;28;1018;-66
2022/10/24 13:24:20;;;;;;;;;;;20.40;71.20;;;;;;5070481;28;1898;-66
2022/10/24 13:27:06;;;;;;;;;;;20.40;71.20;;;;;;5072312;28;1271;-66
2022/10/24 13:29:31;;;;;;;;;;;20.50;71.30;;;;;;5071218;28;1086;-66
2022/10/24 13:32:03;;;;;;;;;;;20.40;71.20;;;;;;5072544;28;1468;-66
2022/10/24 13:34:47;;;;;;;;;;;20.40;71.20;;;;;;5070452;28;1006;-66
2022/10/24 13:37:19;;;;;;;;;;;20.40;71.20;;;;;;5070892;28;1259;-66
2022/10/24 13:39:45;;;;;;;;;;;20.40;71.20;;;;;;5069784;28;1485;-66
2022/10/24 13:42:22;;;;;;;;;;;20.40;71.30;;;;;;5070580;28;863;-66
2022/10/24 13:44:48;;;;;;;;;;;20.40;71.20;;;;;;5070426;28;847;-66
2022/10/24 13:47:32;;;;;;;;;;;20.40;71.30;;;;;;5070058;28;2071;-66
2022/10/24 13:50:03;;;;;;;;;;;20.40;71.30;;;;;;5072230;28;1348;-67
2022/10/24 13:52:31;;;;;;;;;;;20.40;71.30;;;;;;5070724;28;1456;-67
2022/10/24 13:55:20;;;;;;;;;;;20.40;71.30;;;;;;5070602;28;1551;-67
2022/10/24 13:57:48;;;;;;;;;;;20.40;71.30;;;;;;5064243;28;1329;-67
2022/10/24 14:00:21;;;;;;;;;;;20.40;71.40;;;;;;5068580;28;893;-67
2022/10/24 14:02:46;;;;;;;;;;;20.40;71.30;;;;;;5072882;28;1898;-67
2022/10/24 14:05:30;;;;;;;;;;;20.40;71.40;;;;;;5070403;28;874;-67
2022/10/24 14:07:56;;;;;;;;;;;20.40;71.40;;;;;;5069435;28;1274;-68
2022/10/24 14:10:21;;;;;;;;;;;20.40;71.40;;;;;;5071178;28;1103;-68
2022/10/24 14:12:50;;;;;;;;;;;20.40;71.30;;;;;;5071332;28;1282;-67
2022/10/24 14:15:19;;;;;;;;;;;20.40;71.40;;;;;;5070221;28;931;-66
2022/10/24 14:17:51;;;;;;;;;;;20.40;71.40;;;;;;5069303;28;1260;-67
2022/10/24 14:20:27;;;;;;;;;;;20.40;71.40;;;;;;5069146;28;1097;-67
2022/10/24 14:22:52;;;;;;;;;;;20.40;71.40;;;;;;5070919;28;1957;-67
2022/10/24 14:25:21;;;;;;;;;;;20.40;71.40;;;;;;5070489;28;795;-67
2022/10/24 14:27:46;;;;;;;;;;;20.40;71.40;;;;;;5069339;28;1389;-66
2022/10/24 14:30:16;;;;;;;;;;;20.40;71.40;;;;;;5069353;28;1034;-68
2022/10/24 14:32:41;;;;;;;;;;;20.40;71.40;;;;;;5070064;28;1448;-68
2022/10/24 14:35:09;;;;;;;;;;;20.40;71.40;;;;;;5068828;28;1462;-64
2022/10/24 14:37:35;;;;;;;;;;;20.40;71.40;;;;;;5068896;28;1219;-67
2022/10/24 14:40:00;;;;;;;;;;;20.40;71.50;;;;;;5070510;28;859;-68